Beloit, Kansas
Current Conditions -  °F | °C
As of 11:55 AM on Friday 28 Nov 2014 (Local Time) from KCNK Reporting Station
Clear Clear  
Wind Chill: 12°   Ceiling: Unl
Heat Index: 12°   Visibility: 10mi
Dew Point: -1°   Wind: 7mph
Humidity: 40%   Direction: 200°SSW
Pressure: 29.81"   Gusts: NA
Location:  39.46°N, 98.11°W
Report Text: KCNK 281755Z AUTO 20006KT 10SM CLR 12/M01 A2981 RMK AO2 SLP099 T01221011 10122 20006 58022
Loading
Personal Weather Stations






























Interactive Weather Map New forecast layout! Learn more

10-Day Weather Forecast

Advertisements
Track Severe Weather on mobile